Time;durP1;ratioP1;P1;durP2;ratioP2;P2;SDS_P1;SDS_P2;PMS_P1;PMS_P2;Temp;Humidity;BMP_temperature;BMP_pressure;BME280_temperature;BME280_humidity;BME280_pressure;Samples;Min_cycle;Max_cycle;Signal;HPM_P1;HPM_P2
2022/07/14 00:00:06;;;;;;;13.80;3.80;;;;;;;;;;5042484;28;20024;-45
2022/07/14 00:02:35;;;;;;;9.57;3.90;;;;;;;;;;5039885;28;20354;-43
2022/07/14 00:05:00;;;;;;;9.32;3.60;;;;;;;;;;5044511;28;20036;-44
2022/07/14 00:07:26;;;;;;;5.88;3.78;;;;;;;;;;5039780;28;20912;-45
2022/07/14 00:09:52;;;;;;;5.20;4.13;;;;;;;;;;5040257;28;20128;-44
2022/07/14 00:12:18;;;;;;;6.72;3.92;;;;;;;;;;5038995;28;20038;-47
2022/07/14 00:14:43;;;;;;;7.05;4.05;;;;;;;;;;5039275;28;20028;-46
2022/07/14 00:17:09;;;;;;;6.10;3.92;;;;;;;;;;5039473;28;20037;-43
2022/07/14 00:19:34;;;;;;;4.43;3.33;;;;;;;;;;5041617;28;20107;-42
2022/07/14 00:22:00;;;;;;;10.40;4.00;;;;;;;;;;5041471;28;20464;-42
2022/07/14 00:24:26;;;;;;;5.63;3.63;;;;;;;;;;5020318;28;20435;-42
2022/07/14 00:26:51;;;;;;;4.10;3.75;;;;;;;;;;5038436;28;20132;-44
2022/07/14 00:29:17;;;;;;;4.88;3.70;;;;;;;;;;5041597;28;20056;-44
2022/07/14 00:31:43;;;;;;;7.30;3.53;;;;;;;;;;5038401;28;20033;-45
2022/07/14 00:34:09;;;;;;;10.65;4.18;;;;;;;;;;5039933;28;20021;-42
2022/07/14 00:36:34;;;;;;;7.20;3.67;;;;;;;;;;5040625;28;20036;-45
2022/07/14 00:39:00;;;;;;;4.80;4.10;;;;;;;;;;5039151;28;20033;-42
2022/07/14 00:41:26;;;;;;;8.07;3.90;;;;;;;;;;5037349;28;20044;-46
2022/07/14 00:43:52;;;;;;;8.07;3.80;;;;;;;;;;5041478;28;20017;-43
2022/07/14 00:46:18;;;;;;;5.05;3.60;;;;;;;;;;5040823;28;20021;-44
2022/07/14 00:48:43;;;;;;;3.88;3.58;;;;;;;;;;5041356;28;20033;-45
2022/07/14 00:51:09;;;;;;;5.45;4.03;;;;;;;;;;5039228;28;20048;-43
2022/07/14 00:53:35;;;;;;;6.10;4.20;;;;;;;;;;5040480;28;20106;-42
2022/07/14 00:56:01;;;;;;;5.05;4.05;;;;;;;;;;5040199;28;20029;-43
2022/07/14 00:58:26;;;;;;;6.40;3.88;;;;;;;;;;5037608;28;20059;-42
2022/07/14 01:00:52;;;;;;;8.95;4.30;;;;;;;;;;5039735;28;20036;-42
2022/07/14 01:03:18;;;;;;;4.78;3.88;;;;;;;;;;5045403;28;20469;-46
2022/07/14 01:05:43;;;;;;;5.70;4.38;;;;;;;;;;5043849;28;20029;-42
2022/07/14 01:08:09;;;;;;;6.40;4.07;;;;;;;;;;5042878;28;20028;-42
2022/07/14 01:10:35;;;;;;;5.18;3.95;;;;;;;;;;5039757;28;20441;-42
2022/07/14 01:13:04;;;;;;;5.35;3.95;;;;;;;;;;5042131;28;20021;-41
2022/07/14 01:15:30;;;;;;;5.57;3.85;;;;;;;;;;5042617;28;20493;-42
2022/07/14 01:17:56;;;;;;;7.05;4.07;;;;;;;;;;5041060;28;20457;-42
2022/07/14 01:20:23;;;;;;;3.83;3.50;;;;;;;;;;5043056;28;20057;-43
2022/07/14 01:22:49;;;;;;;4.20;3.75;;;;;;;;;;5043989;28;20029;-43
2022/07/14 01:25:16;;;;;;;8.35;4.00;;;;;;;;;;5044331;28;20048;-45
2022/07/14 01:27:42;;;;;;;5.75;3.78;;;;;;;;;;5042946;28;20045;-46
2022/07/14 01:30:08;;;;;;;4.88;4.25;;;;;;;;;;5042091;28;20032;-44
2022/07/14 01:32:34;;;;;;;4.05;3.63;;;;;;;;;;5039797;28;20043;-42
2022/07/14 01:35:00;;;;;;;6.25;4.10;;;;;;;;;;5042738;28;20036;-41
2022/07/14 01:37:28;;;;;;;8.23;3.88;;;;;;;;;;5042437;28;20037;-42
2022/07/14 01:39:53;;;;;;;6.70;4.03;;;;;;;;;;5046177;28;20465;-42
2022/07/14 01:42:19;;;;;;;6.05;3.90;;;;;;;;;;5040451;28;20051;-43
2022/07/14 01:44:45;;;;;;;4.53;4.03;;;;;;;;;;5045776;28;20369;-42
2022/07/14 01:47:11;;;;;;;7.32;3.60;;;;;;;;;;5042577;28;20061;-42
2022/07/14 01:49:37;;;;;;;9.88;3.90;;;;;;;;;;5026065;28;20104;-43
2022/07/14 01:52:03;;;;;;;7.10;4.40;;;;;;;;;;5045636;28;20531;-43
2022/07/14 01:54:29;;;;;;;4.35;3.72;;;;;;;;;;5039974;28;20030;-42
2022/07/14 01:56:55;;;;;;;6.30;4.07;;;;;;;;;;5040039;28;20025;-44
2022/07/14 01:59:21;;;;;;;5.00;3.67;;;;;;;;;;5041670;28;20436;-47
2022/07/14 02:01:47;;;;;;;5.10;3.70;;;;;;;;;;5036943;28;20504;-42
2022/07/14 02:04:16;;;;;;;3.80;3.50;;;;;;;;;;5027206;28;20043;-43
2022/07/14 02:06:43;;;;;;;4.22;3.42;;;;;;;;;;5045055;28;20385;-42
2022/07/14 02:09:09;;;;;;;9.98;4.60;;;;;;;;;;5046301;28;20473;-43
2022/07/14 02:14:20;;;;;;;5.20;3.72;;;;;;;;;;5042174;28;20024;-43
2022/07/14 02:16:46;;;;;;;7.85;3.83;;;;;;;;;;5038942;28;20142;-42
2022/07/14 02:19:11;;;;;;;4.75;4.15;;;;;;;;;;5043215;28;20052;-42
2022/07/14 02:21:39;;;;;;;5.10;3.58;;;;;;;;;;5040308;28;20478;-43
2022/07/14 02:24:06;;;;;;;5.80;4.47;;;;;;;;;;5042039;28;20406;-41
2022/07/14 02:26:32;;;;;;;6.20;4.35;;;;;;;;;;5041560;28;20045;-43
2022/07/14 02:28:58;;;;;;;4.60;4.20;;;;;;;;;;5042551;28;20040;-42
2022/07/14 02:31:23;;;;;;;4.18;3.55;;;;;;;;;;5041506;28;20041;-42
2022/07/14 02:33:49;;;;;;;6.68;4.03;;;;;;;;;;5039266;28;20028;-48
2022/07/14 02:36:15;;;;;;;5.57;4.10;;;;;;;;;;5042308;28;20416;-42
2022/07/14 02:38:41;;;;;;;4.20;3.80;;;;;;;;;;5041260;28;20792;-42
2022/07/14 02:41:07;;;;;;;5.68;3.90;;;;;;;;;;5040731;28;20489;-44
2022/07/14 02:43:34;;;;;;;5.82;4.00;;;;;;;;;;5042095;28;20063;-43
2022/07/14 02:46:01;;;;;;;4.57;3.97;;;;;;;;;;5042343;28;20056;-45
2022/07/14 02:48:27;;;;;;;5.05;4.55;;;;;;;;;;5042185;28;20050;-42
2022/07/14 02:51:04;;;;;;;9.93;3.95;;;;;;;;;;5039326;28;20188;-42
2022/07/14 02:53:30;;;;;;;5.45;3.63;;;;;;;;;;5043121;28;20090;-42
2022/07/14 02:55:56;;;;;;;6.97;3.80;;;;;;;;;;5042271;28;20428;-44
2022/07/14 02:58:21;;;;;;;4.35;3.60;;;;;;;;;;5041025;28;20039;-47
2022/07/14 03:00:48;;;;;;;4.00;3.70;;;;;;;;;;5043724;28;20123;-42
2022/07/14 03:03:13;;;;;;;5.43;3.90;;;;;;;;;;5042225;28;20033;-43
2022/07/14 03:05:39;;;;;;;3.67;3.38;;;;;;;;;;5040963;28;20033;-41
2022/07/14 03:08:05;;;;;;;5.85;3.97;;;;;;;;;;5040365;28;20039;-45
2022/07/14 03:10:31;;;;;;;6.90;3.67;;;;;;;;;;5038544;28;20037;-47
2022/07/14 03:12:57;;;;;;;4.50;3.85;;;;;;;;;;5039638;28;20032;-43
2022/07/14 03:15:22;;;;;;;6.32;3.95;;;;;;;;;;5039688;28;20072;-42
2022/07/14 03:17:48;;;;;;;8.77;3.67;;;;;;;;;;5042162;28;20032;-43
2022/07/14 03:20:14;;;;;;;4.60;3.47;;;;;;;;;;5040617;28;20021;-44
2022/07/14 03:22:40;;;;;;;4.00;3.53;;;;;;;;;;5042435;28;20041;-43
2022/07/14 03:25:06;;;;;;;5.93;3.83;;;;;;;;;;5041028;28;20488;-43
2022/07/14 03:27:35;;;;;;;9.77;3.50;;;;;;;;;;5040835;28;20049;-42
2022/07/14 03:30:02;;;;;;;6.18;3.72;;;;;;;;;;5041245;28;20036;-44
2022/07/14 03:32:29;;;;;;;6.82;3.70;;;;;;;;;;5043309;28;20094;-42
2022/07/14 03:34:54;;;;;;;3.88;3.47;;;;;;;;;;5038931;28;20037;-42
2022/07/14 03:37:20;;;;;;;6.22;3.20;;;;;;;;;;5040751;28;20036;-42
2022/07/14 03:39:46;;;;;;;4.88;3.40;;;;;;;;;;5041543;28;20041;-43
2022/07/14 03:42:11;;;;;;;6.28;3.83;;;;;;;;;;5040791;28;20043;-45
2022/07/14 03:44:37;;;;;;;4.00;3.60;;;;;;;;;;5042092;28;20108;-42
2022/07/14 03:47:03;;;;;;;4.72;3.40;;;;;;;;;;5038257;28;20021;-42
2022/07/14 03:49:29;;;;;;;6.95;3.50;;;;;;;;;;5042339;28;20437;-43
2022/07/14 03:51:55;;;;;;;6.97;3.20;;;;;;;;;;5037994;28;20091;-41
2022/07/14 03:54:20;;;;;;;4.60;3.90;;;;;;;;;;5042917;28;20070;-41
2022/07/14 03:56:46;;;;;;;3.83;3.38;;;;;;;;;;5037874;28;20024;-42
2022/07/14 03:59:12;;;;;;;9.73;3.90;;;;;;;;;;5040143;28;20123;-44
2022/07/14 04:01:38;;;;;;;5.80;4.13;;;;;;;;;;5038708;28;20465;-44
2022/07/14 04:04:04;;;;;;;4.97;4.35;;;;;;;;;;5040098;28;20039;-42
2022/07/14 04:06:30;;;;;;;5.80;3.40;;;;;;;;;;5041669;28;20036;-42
2022/07/14 04:08:57;;;;;;;6.38;3.47;;;;;;;;;;5040090;28;20029;-41
2022/07/14 04:11:22;;;;;;;5.70;3.47;;;;;;;;;;5040533;28;20047;-42
2022/07/14 04:13:51;;;;;;;6.97;3.75;;;;;;;;;;5039976;28;20436;-42
2022/07/14 04:16:39;;;;;;;8.35;3.50;;;;;;;;;;5038928;28;20075;-42
2022/07/14 04:19:24;;;;;;;6.40;3.50;;;;;;;;;;5039984;28;20029;-42
2022/07/14 04:21:50;;;;;;;6.60;3.90;;;;;;;;;;5042240;28;20025;-42
2022/07/14 04:24:16;;;;;;;5.85;3.78;;;;;;;;;;5039922;28;20057;-42
2022/07/14 04:26:53;;;;;;;8.30;3.72;;;;;;;;;;5036826;28;20091;-43
2022/07/14 04:29:38;;;;;;;5.57;3.42;;;;;;;;;;5037308;28;20649;-48
2022/07/14 04:32:05;;;;;;;3.58;3.28;;;;;;;;;;5041378;28;20039;-44
2022/07/14 04:34:30;;;;;;;8.10;4.10;;;;;;;;;;5042036;28;20026;-47
2022/07/14 04:36:56;;;;;;;6.68;3.70;;;;;;;;;;5037169;28;20132;-43
2022/07/14 04:39:22;;;;;;;8.82;3.42;;;;;;;;;;5045044;28;20035;-43
2022/07/14 04:41:47;;;;;;;12.52;3.78;;;;;;;;;;5042628;28;20099;-42
2022/07/14 04:44:14;;;;;;;5.13;3.50;;;;;;;;;;5044603;28;20500;-43
2022/07/14 04:46:39;;;;;;;4.00;3.53;;;;;;;;;;5042177;28;20060;-46
2022/07/14 04:52:04;;;;;;;4.47;3.60;;;;;;;;;;5042072;28;20098;-41
2022/07/14 04:54:35;;;;;;;7.13;3.58;;;;;;;;;;5044743;28;20367;-48
2022/07/14 04:57:03;;;;;;;7.35;3.30;;;;;;;;;;5037579;28;20503;-46
2022/07/14 04:59:30;;;;;;;4.03;3.67;;;;;;;;;;5045517;28;20072;-42
2022/07/14 05:01:57;;;;;;;6.82;3.75;;;;;;;;;;5044398;28;20034;-42
2022/07/14 05:04:22;;;;;;;5.97;3.45;;;;;;;;;;5041968;28;20025;-47
2022/07/14 05:06:49;;;;;;;5.22;4.30;;;;;;;;;;5042690;28;20108;-44
2022/07/14 05:09:18;;;;;;;4.57;3.65;;;;;;;;;;5040599;28;20030;-43
2022/07/14 05:11:45;;;;;;;8.75;3.97;;;;;;;;;;5026599;28;20125;-46
2022/07/14 05:14:11;;;;;;;7.47;4.15;;;;;;;;;;5044148;28;20032;-44
2022/07/14 05:16:38;;;;;;;5.95;4.00;;;;;;;;;;5046991;28;20029;-48
2022/07/14 05:19:04;;;;;;;4.53;3.60;;;;;;;;;;5044218;28;20067;-43
2022/07/14 05:21:30;;;;;;;5.18;3.70;;;;;;;;;;5039915;28;20028;-48
2022/07/14 05:23:57;;;;;;;9.52;4.25;;;;;;;;;;5044010;28;20044;-44
2022/07/14 05:26:23;;;;;;;6.60;3.75;;;;;;;;;;5043000;28;20388;-44
2022/07/14 05:28:49;;;;;;;6.47;3.83;;;;;;;;;;5044562;28;20038;-42
2022/07/14 05:31:15;;;;;;;6.57;3.95;;;;;;;;;;5045223;28;20043;-46
2022/07/14 05:33:41;;;;;;;6.78;3.70;;;;;;;;;;5044213;28;20469;-43
2022/07/14 05:36:07;;;;;;;9.32;4.28;;;;;;;;;;5041818;28;20069;-42
2022/07/14 05:38:33;;;;;;;6.20;4.40;;;;;;;;;;5042209;28;20029;-43
2022/07/14 05:41:01;;;;;;;4.57;3.90;;;;;;;;;;5042807;28;20106;-47
2022/07/14 05:43:28;;;;;;;6.88;3.95;;;;;;;;;;5039567;28;20561;-42
2022/07/14 05:45:54;;;;;;;7.53;3.97;;;;;;;;;;5046515;28;20029;-42
2022/07/14 05:48:19;;;;;;;6.45;3.80;;;;;;;;;;5040362;28;20039;-44
2022/07/14 05:50:45;;;;;;;4.38;3.75;;;;;;;;;;5045813;28;20508;-42
2022/07/14 05:53:11;;;;;;;9.35;3.55;;;;;;;;;;5041873;28;20044;-42
2022/07/14 05:55:37;;;;;;;3.92;3.50;;;;;;;;;;5044480;28;20034;-42
2022/07/14 05:58:02;;;;;;;3.92;3.50;;;;;;;;;;5042923;28;20033;-44
2022/07/14 06:00:28;;;;;;;6.00;3.40;;;;;;;;;;5043387;28;20099;-43
2022/07/14 06:02:54;;;;;;;3.67;3.38;;;;;;;;;;5044991;28;20412;-46
2022/07/14 06:05:19;;;;;;;5.25;3.35;;;;;;;;;;5041738;28;20056;-42
2022/07/14 06:07:45;;;;;;;7.55;3.40;;;;;;;;;;5041514;28;20104;-42
2022/07/14 06:10:12;;;;;;;4.90;3.58;;;;;;;;;;5042270;28;20017;-42
2022/07/14 06:12:37;;;;;;;4.85;3.70;;;;;;;;;;5039144;28;20535;-46
2022/07/14 06:15:10;;;;;;;5.68;3.90;;;;;;;;;;5041660;28;20100;-42
2022/07/14 06:17:36;;;;;;;7.70;3.92;;;;;;;;;;5041474;28;20033;-44
2022/07/14 06:20:07;;;;;;;7.53;3.30;;;;;;;;;;5038313;28;20072;-44
2022/07/14 06:22:36;;;;;;;6.07;3.50;;;;;;;;;;5041025;28;20502;-43
2022/07/14 06:25:03;;;;;;;8.30;3.67;;;;;;;;;;5041633;28;20032;-42
2022/07/14 06:27:29;;;;;;;5.93;3.63;;;;;;;;;;5040026;28;20041;-47
2022/07/14 06:29:54;;;;;;;6.57;4.03;;;;;;;;;;5042318;28;20387;-45
2022/07/14 06:32:23;;;;;;;5.28;3.42;;;;;;;;;;5044882;28;20052;-42
2022/07/14 06:34:49;;;;;;;11.48;4.10;;;;;;;;;;5038852;28;20025;-44
2022/07/14 06:37:15;;;;;;;3.45;3.25;;;;;;;;;;5040837;28;20060;-44
2022/07/14 06:39:42;;;;;;;5.95;3.50;;;;;;;;;;5037425;28;20060;-41
2022/07/14 06:42:09;;;;;;;5.72;3.90;;;;;;;;;;5041876;28;20025;-47
2022/07/14 06:44:35;;;;;;;4.53;3.65;;;;;;;;;;5043286;28;20489;-43
2022/07/14 06:47:01;;;;;;;11.75;3.85;;;;;;;;;;5040721;28;20052;-42
2022/07/14 06:49:27;;;;;;;8.55;3.63;;;;;;;;;;5042769;28;20104;-45
2022/07/14 06:51:53;;;;;;;5.22;3.60;;;;;;;;;;5037738;28;20112;-43
2022/07/14 06:54:18;;;;;;;6.85;3.85;;;;;;;;;;5038831;28;20029;-45
2022/07/14 06:56:44;;;;;;;5.03;2.90;;;;;;;;;;5041239;28;20040;-47
2022/07/14 06:59:09;;;;;;;10.00;3.65;;;;;;;;;;5041704;28;20101;-42
2022/07/14 07:01:37;;;;;;;4.03;3.30;;;;;;;;;;5036570;28;20033;-43
2022/07/14 07:04:03;;;;;;;6.20;3.40;;;;;;;;;;5035317;28;20088;-48
2022/07/14 07:06:44;;;;;;;3.72;2.75;;;;;;;;;;5039442;28;20086;-42
2022/07/14 07:09:13;;;;;;;4.32;3.30;;;;;;;;;;5036895;28;20158;-42
2022/07/14 07:11:40;;;;;;;5.25;3.35;;;;;;;;;;5038668;28;20447;-43
2022/07/14 07:14:06;;;;;;;9.98;3.47;;;;;;;;;;5037088;28;20056;-43
2022/07/14 07:16:32;;;;;;;3.83;2.83;;;;;;;;;;5035616;28;20040;-42
2022/07/14 07:18:58;;;;;;;18.55;3.22;;;;;;;;;;5034226;28;20033;-41
2022/07/14 07:21:23;;;;;;;3.08;2.88;;;;;;;;;;5037122;28;20032;-42
2022/07/14 07:23:50;;;;;;;3.03;2.83;;;;;;;;;;5032320;28;20131;-42
2022/07/14 07:26:17;;;;;;;4.05;3.30;;;;;;;;;;5035880;28;20457;-47
2022/07/14 07:28:43;;;;;;;7.85;3.25;;;;;;;;;;5041393;28;20440;-42
2022/07/14 07:31:09;;;;;;;5.25;2.95;;;;;;;;;;5037110;28;20047;-42
2022/07/14 07:33:35;;;;;;;8.55;3.00;;;;;;;;;;5039436;28;20032;-43
2022/07/14 07:36:01;;;;;;;4.20;2.97;;;;;;;;;;5034769;28;20402;-42
2022/07/14 07:38:27;;;;;;;4.57;2.80;;;;;;;;;;5037614;28;20025;-42
2022/07/14 07:40:54;;;;;;;4.72;3.22;;;;;;;;;;5036254;28;20982;-42
2022/07/14 07:43:23;;;;;;;35.45;3.80;;;;;;;;;;5038313;28;20428;-43
2022/07/14 07:45:49;;;;;;;14.60;3.10;;;;;;;;;;5039606;28;20032;-45
2022/07/14 07:48:15;;;;;;;6.88;3.08;;;;;;;;;;5035656;28;20028;-46
2022/07/14 07:50:42;;;;;;;4.13;2.70;;;;;;;;;;5037269;28;20493;-42
2022/07/14 07:53:08;;;;;;;5.93;2.63;;;;;;;;;;5037774;28;20084;-43
2022/07/14 07:55:34;;;;;;;14.65;4.47;;;;;;;;;;5039450;28;20067;-44
2022/07/14 07:58:01;;;;;;;9.20;3.47;;;;;;;;;;5041299;28;20599;-43
2022/07/14 08:00:27;;;;;;;11.70;3.70;;;;;;;;;;5039274;28;20029;-42
2022/07/14 08:02:54;;;;;;;30.08;5.47;;;;;;;;;;5042526;28;20059;-43
2022/07/14 08:05:22;;;;;;;3.78;3.38;;;;;;;;;;5038174;28;20070;-44
2022/07/14 08:07:51;;;;;;;8.57;3.70;;;;;;;;;;5038664;28;20032;-42
2022/07/14 08:10:17;;;;;;;7.10;3.55;;;;;;;;;;5039276;28;20643;-42
2022/07/14 08:12:43;;;;;;;4.25;3.80;;;;;;;;;;5043558;28;20041;-43
2022/07/14 08:15:10;;;;;;;4.68;3.75;;;;;;;;;;5044456;28;20040;-42
2022/07/14 08:17:36;;;;;;;9.55;4.78;;;;;;;;;;5044174;28;20029;-42
2022/07/14 08:20:03;;;;;;;5.47;3.75;;;;;;;;;;5040602;28;20111;-42
2022/07/14 08:22:29;;;;;;;8.73;3.78;;;;;;;;;;5045563;28;20028;-42
2022/07/14 08:24:56;;;;;;;7.68;4.18;;;;;;;;;;5037746;28;22340;-42
2022/07/14 08:27:22;;;;;;;4.78;4.32;;;;;;;;;;5041950;28;20525;-42
2022/07/14 08:29:49;;;;;;;7.60;3.70;;;;;;;;;;5043817;28;20049;-42
2022/07/14 08:32:15;;;;;;;7.82;4.28;;;;;;;;;;5041516;28;20082;-43
2022/07/14 08:34:41;;;;;;;7.57;3.75;;;;;;;;;;5044999;28;20397;-42
2022/07/14 08:37:06;;;;;;;7.47;4.55;;;;;;;;;;5045544;28;20039;-42
2022/07/14 08:39:32;;;;;;;5.00;3.67;;;;;;;;;;5042444;28;20382;-42
2022/07/14 08:42:02;;;;;;;6.68;3.60;;;;;;;;;;5041924;28;20119;-42
2022/07/14 08:44:29;;;;;;;6.60;3.30;;;;;;;;;;5039962;28;20044;-43
2022/07/14 08:46:55;;;;;;;6.70;3.30;;;;;;;;;;5039755;28;20037;-42
2022/07/14 08:49:22;;;;;;;5.57;3.10;;;;;;;;;;5037350;28;20110;-43
2022/07/14 08:51:49;;;;;;;8.25;3.38;;;;;;;;;;5040521;28;20394;-42
2022/07/14 08:54:16;;;;;;;3.28;2.50;;;;;;;;;;5038774;28;20036;-42
2022/07/14 08:56:41;;;;;;;3.33;3.03;;;;;;;;;;5042865;28;20639;-42
2022/07/14 08:59:08;;;;;;;6.47;3.08;;;;;;;;;;5042442;28;20079;-42
2022/07/14 09:01:35;;;;;;;3.45;2.90;;;;;;;;;;5041768;28;20033;-42
2022/07/14 09:04:01;;;;;;;3.33;2.60;;;;;;;;;;5041841;28;20025;-42
2022/07/14 09:06:46;;;;;;;4.07;2.35;;;;;;;;;;5038749;28;20158;-43
2022/07/14 09:09:16;;;;;;;2.75;2.47;;;;;;;;;;5041369;28;20032;-42
2022/07/14 09:11:56;;;;;;;5.70;2.30;;;;;;;;;;5040489;28;20048;-41
2022/07/14 09:14:22;;;;;;;2.63;2.38;;;;;;;;;;5043866;28;20048;-42
2022/07/14 09:16:48;;;;;;;3.47;2.55;;;;;;;;;;5043702;28;20024;-42
2022/07/14 09:19:15;;;;;;;2.25;1.98;;;;;;;;;;5044036;28;20033;-42
2022/07/14 09:21:46;;;;;;;2.33;2.13;;;;;;;;;;5041620;28;20032;-43
2022/07/14 09:24:16;;;;;;;5.82;2.10;;;;;;;;;;5045024;28;20068;-45
2022/07/14 09:26:47;;;;;;;9.93;2.47;;;;;;;;;;5041081;28;20039;-42
2022/07/14 09:29:17;;;;;;;2.72;1.65;;;;;;;;;;5043319;28;20060;-42
2022/07/14 09:31:43;;;;;;;2.17;1.90;;;;;;;;;;5043302;28;20103;-45
2022/07/14 09:34:22;;;;;;;2.95;1.90;;;;;;;;;;5043339;28;20478;-42
2022/07/14 09:36:49;;;;;;;3.70;1.73;;;;;;;;;;5044625;28;20064;-43
2022/07/14 09:39:15;;;;;;;2.63;1.70;;;;;;;;;;5044955;28;20039;-42
2022/07/14 09:41:54;;;;;;;2.30;1.60;;;;;;;;;;5042957;28;20038;-42
2022/07/14 09:44:21;;;;;;;2.33;1.90;;;;;;;;;;5042494;28;20108;-43
2022/07/14 09:46:57;;;;;;;2.70;2.15;;;;;;;;;;5041151;28;20393;-44
2022/07/14 09:49:28;;;;;;;4.00;2.30;;;;;;;;;;5043878;28;20033;-42
2022/07/14 09:52:02;;;;;;;6.07;1.98;;;;;;;;;;5043989;28;20028;-43
2022/07/14 09:54:47;;;;;;;5.18;2.22;;;;;;;;;;5041982;28;20650;-43
2022/07/14 09:57:13;;;;;;;3.92;2.50;;;;;;;;;;5042614;28;20056;-45
2022/07/14 10:00:08;;;;;;;3.83;2.38;;;;;;;;;;5044435;28;20052;-43
2022/07/14 10:02:37;;;;;;;2.95;2.45;;;;;;;;;;5040370;28;20396;-43
2022/07/14 10:05:07;;;;;;;2.92;2.45;;;;;;;;;;5042001;28;20033;-43
2022/07/14 10:07:38;;;;;;;2.50;2.30;;;;;;;;;;5042835;28;20025;-42
2022/07/14 10:10:15;;;;;;;4.45;2.10;;;;;;;;;;5044782;28;20023;-43
2022/07/14 10:12:42;;;;;;;6.20;2.72;;;;;;;;;;5041750;28;20116;-43
2022/07/14 10:15:11;;;;;;;5.72;2.88;;;;;;;;;;5038763;28;20033;-43
2022/07/14 10:17:39;;;;;;;6.15;3.00;;;;;;;;;;5042153;28;20033;-43
2022/07/14 10:20:06;;;;;;;9.45;3.75;;;;;;;;;;5041292;28;20047;-42
2022/07/14 10:22:32;;;;;;;5.65;3.25;;;;;;;;;;5043100;28;20071;-42
2022/07/14 10:24:58;;;;;;;4.70;2.50;;;;;;;;;;5035438;28;20064;-43
2022/07/14 10:27:26;;;;;;;10.10;3.50;;;;;;;;;;5039912;28;20431;-42
2022/07/14 10:29:56;;;;;;;4.53;2.80;;;;;;;;;;5041080;28;20033;-43
2022/07/14 10:32:46;;;;;;;7.78;2.97;;;;;;;;;;5038533;28;20059;-45
2022/07/14 10:35:24;;;;;;;3.88;2.55;;;;;;;;;;5038077;28;20033;-44
2022/07/14 10:38:20;;;;;;;4.28;2.95;;;;;;;;;;5038997;28;20060;-43
2022/07/14 10:40:59;;;;;;;6.38;3.38;;;;;;;;;;5041180;28;21888;-42
2022/07/14 10:43:39;;;;;;;6.07;3.03;;;;;;;;;;5043401;28;20032;-48
2022/07/14 10:46:05;;;;;;;14.25;3.20;;;;;;;;;;5045329;28;20481;-43
2022/07/14 10:48:32;;;;;;;6.90;3.42;;;;;;;;;;5037304;28;20116;-43
2022/07/14 10:51:13;;;;;;;4.68;3.33;;;;;;;;;;5042279;28;20044;-43
2022/07/14 10:54:11;;;;;;;6.43;3.25;;;;;;;;;;5038591;28;20078;-45
2022/07/14 10:56:45;;;;;;;8.50;4.00;;;;;;;;;;5019128;28;20586;-42
2022/07/14 10:59:26;;;;;;;8.55;2.92;;;;;;;;;;5020500;28;20052;-42
2022/07/14 11:02:10;;;;;;;4.03;2.83;;;;;;;;;;5011017;28;21667;-44
2022/07/14 11:05:04;;;;;;;4.38;2.78;;;;;;;;;;5018881;28;20116;-42
2022/07/14 11:08:07;;;;;;;4.60;2.63;;;;;;;;;;5012054;28;20038;-42
2022/07/14 11:10:52;;;;;;;10.75;3.22;;;;;;;;;;5019636;28;20033;-42
2022/07/14 11:13:18;;;;;;;7.40;2.88;;;;;;;;;;5020061;28;20022;-42
2022/07/14 11:15:45;;;;;;;2.90;2.70;;;;;;;;;;5017247;28;20631;-42
2022/07/14 11:18:26;;;;;;;6.05;2.70;;;;;;;;;;5020062;28;20061;-44
2022/07/14 11:21:00;;;;;;;5.90;2.80;;;;;;;;;;5016582;28;20152;-43
2022/07/14 11:23:29;;;;;;;3.90;2.58;;;;;;;;;;5019010;28;20518;-42
2022/07/14 11:25:56;;;;;;;3.67;2.72;;;;;;;;;;5018210;28;20056;-42
2022/07/14 11:28:31;;;;;;;2.45;2.25;;;;;;;;;;5017504;28;20435;-42
2022/07/14 11:31:19;;;;;;;6.88;2.75;;;;;;;;;;5013805;28;20037;-43
2022/07/14 11:36:38;;;;;;;2.60;2.10;;;;;;;;;;5020455;28;20038;-42
2022/07/14 11:39:16;;;;;;;6.18;2.30;;;;;;;;;;5016294;28;20516;-42
2022/07/14 11:41:44;;;;;;;2.70;2.00;;;;;;;;;;5020120;28;20053;-43
2022/07/14 11:44:43;;;;;;;3.58;1.90;;;;;;;;;;5016247;28;20057;-44
2022/07/14 11:47:30;;;;;;;2.10;1.88;;;;;;;;;;5013724;28;20045;-42
2022/07/14 11:50:06;;;;;;;2.88;2.10;;;;;;;;;;5018802;28;20048;-42
2022/07/14 11:52:34;;;;;;;5.68;2.20;;;;;;;;;;5014403;28;20048;-41
2022/07/14 11:55:02;;;;;;;4.53;1.98;;;;;;;;;;5009407;28;20042;-42
2022/07/14 11:57:29;;;;;;;2.88;2.00;;;;;;;;;;5017442;28;20029;-42
2022/07/14 12:00:07;;;;;;;2.67;1.88;;;;;;;;;;5014141;28;20021;-42
2022/07/14 12:02:58;;;;;;;5.25;2.00;;;;;;;;;;5018468;28;20041;-46
2022/07/14 12:05:27;;;;;;;4.97;2.33;;;;;;;;;;5016738;28;20037;-47
2022/07/14 12:07:54;;;;;;;8.20;2.25;;;;;;;;;;5002018;28;20033;-43
2022/07/14 12:10:37;;;;;;;3.88;2.10;;;;;;;;;;4997106;28;20445;-43
2022/07/14 12:13:03;;;;;;;5.40;1.70;;;;;;;;;;4999140;28;20172;-44
2022/07/14 12:15:30;;;;;;;7.85;2.03;;;;;;;;;;5003678;28;20046;-42
2022/07/14 12:17:56;;;;;;;3.92;1.85;;;;;;;;;;5003700;28;20040;-42
2022/07/14 12:20:24;;;;;;;6.15;1.73;;;;;;;;;;5005319;28;20022;-42
2022/07/14 12:22:54;;;;;;;3.60;1.98;;;;;;;;;;4998238;28;22526;-43
2022/07/14 12:25:30;;;;;;;2.50;1.60;;;;;;;;;;5004502;28;20030;-42
2022/07/14 12:27:58;;;;;;;1.50;1.40;;;;;;;;;;5003550;28;20267;-41
2022/07/14 12:30:24;;;;;;;11.93;1.77;;;;;;;;;;5002961;28;20648;-42
2022/07/14 12:32:52;;;;;;;2.92;1.70;;;;;;;;;;5003397;28;20043;-42
2022/07/14 12:35:22;;;;;;;1.80;1.60;;;;;;;;;;5005430;28;20065;-44
2022/07/14 12:37:50;;;;;;;5.90;1.50;;;;;;;;;;5003113;28;20026;-42
2022/07/14 12:40:18;;;;;;;5.00;1.55;;;;;;;;;;5000192;28;20477;-42
2022/07/14 12:42:44;;;;;;;1.63;1.50;;;;;;;;;;5008904;28;20026;-45
2022/07/14 12:45:10;;;;;;;2.28;1.40;;;;;;;;;;5003980;28;20030;-42
2022/07/14 12:48:00;;;;;;;4.40;1.70;;;;;;;;;;5001317;28;20121;-42
2022/07/14 12:50:28;;;;;;;4.50;1.98;;;;;;;;;;4997425;28;20120;-42
2022/07/14 12:52:56;;;;;;;3.78;1.88;;;;;;;;;;5006086;28;20048;-42
2022/07/14 12:55:44;;;;;;;5.32;1.70;;;;;;;;;;4999984;28;20518;-44
2022/07/14 12:58:11;;;;;;;1.60;1.40;;;;;;;;;;5004110;28;20443;-44
2022/07/14 13:00:39;;;;;;;3.85;1.40;;;;;;;;;;4997529;28;20410;-43
2022/07/14 13:03:16;;;;;;;5.40;1.65;;;;;;;;;;4998472;28;20034;-42
2022/07/14 13:05:55;;;;;;;4.38;1.83;;;;;;;;;;4995487;28;20026;-42
2022/07/14 13:08:47;;;;;;;3.17;1.83;;;;;;;;;;5001166;28;20068;-45
2022/07/14 13:11:13;;;;;;;2.70;1.80;;;;;;;;;;5000181;28;20042;-44
2022/07/14 13:13:43;;;;;;;1.98;1.58;;;;;;;;;;4998649;28;20114;-44
2022/07/14 13:16:27;;;;;;;5.72;1.63;;;;;;;;;;4999033;28;20034;-42
2022/07/14 13:19:21;;;;;;;2.67;1.65;;;;;;;;;;5005200;28;20029;-41
2022/07/14 13:22:01;;;;;;;3.30;1.52;;;;;;;;;;4994076;28;20147;-42
2022/07/14 13:24:30;;;;;;;3.30;1.50;;;;;;;;;;5001466;28;20034;-42
2022/07/14 13:27:16;;;;;;;3.25;1.77;;;;;;;;;;5009436;28;20036;-43
2022/07/14 13:29:47;;;;;;;1.98;1.50;;;;;;;;;;5001207;28;20022;-47
2022/07/14 13:32:14;;;;;;;3.25;1.70;;;;;;;;;;4995852;28;20498;-44
2022/07/14 13:34:40;;;;;;;4.90;1.40;;;;;;;;;;5002961;28;20034;-42
2022/07/14 13:37:08;;;;;;;2.80;1.50;;;;;;;;;;4999012;28;20069;-42
2022/07/14 13:39:34;;;;;;;2.83;1.27;;;;;;;;;;4996179;28;20027;-42
2022/07/14 13:42:01;;;;;;;5.63;1.50;;;;;;;;;;5003725;28;20026;-43
2022/07/14 13:44:27;;;;;;;1.60;1.40;;;;;;;;;;5000218;28;20502;-42
2022/07/14 13:46:53;;;;;;;2.35;1.20;;;;;;;;;;5003709;28;20037;-43
2022/07/14 13:49:19;;;;;;;8.82;1.50;;;;;;;;;;5000661;28;20042;-42
2022/07/14 13:54:30;;;;;;;4.75;1.58;;;;;;;;;;5003060;28;20057;-46
2022/07/14 13:56:56;;;;;;;2.05;1.25;;;;;;;;;;5002207;28;20069;-42
2022/07/14 13:59:21;;;;;;;1.63;1.40;;;;;;;;;;5000919;28;20450;-42
2022/07/14 14:01:47;;;;;;;2.50;1.30;;;;;;;;;;5003565;28;20037;-42
2022/07/14 14:04:13;;;;;;;1.30;1.20;;;;;;;;;;5003944;28;20034;-45
2022/07/14 14:06:41;;;;;;;3.47;1.48;;;;;;;;;;5001820;28;20104;-44
2022/07/14 14:09:08;;;;;;;3.67;1.50;;;;;;;;;;4996859;28;20108;-42
2022/07/14 14:11:34;;;;;;;2.95;1.40;;;;;;;;;;5003683;28;20034;-42
2022/07/14 14:14:02;;;;;;;2.45;1.58;;;;;;;;;;5001818;28;20475;-43
2022/07/14 14:16:28;;;;;;;5.63;1.33;;;;;;;;;;4999102;28;20426;-42
2022/07/14 14:18:54;;;;;;;5.05;1.52;;;;;;;;;;5003646;28;20029;-42
2022/07/14 14:21:19;;;;;;;1.50;1.38;;;;;;;;;;5004621;28;20022;-42
2022/07/14 14:23:45;;;;;;;2.35;1.60;;;;;;;;;;5002049;28;20441;-44
2022/07/14 14:26:11;;;;;;;1.92;1.42;;;;;;;;;;4998505;28;20032;-42
2022/07/14 14:28:37;;;;;;;1.67;1.40;;;;;;;;;;5002210;28;20038;-43
2022/07/14 14:31:04;;;;;;;7.30;1.42;;;;;;;;;;5000956;28;20057;-41
2022/07/14 14:33:29;;;;;;;3.25;1.60;;;;;;;;;;4992606;28;20040;-44
2022/07/14 14:35:55;;;;;;;3.25;1.65;;;;;;;;;;4999341;28;20038;-44
2022/07/14 14:38:21;;;;;;;5.72;1.65;;;;;;;;;;5003193;28;20155;-42
2022/07/14 14:40:48;;;;;;;2.17;1.48;;;;;;;;;;5000832;28;20072;-43
2022/07/14 14:43:13;;;;;;;4.55;1.50;;;;;;;;;;5000645;28;20076;-44
2022/07/14 14:45:43;;;;;;;3.92;1.80;;;;;;;;;;4997309;28;20034;-42
2022/07/14 14:48:09;;;;;;;1.60;1.50;;;;;;;;;;4998311;28;20049;-47
2022/07/14 14:50:35;;;;;;;5.72;1.52;;;;;;;;;;4996227;28;20391;-45
2022/07/14 14:53:04;;;;;;;1.58;1.30;;;;;;;;;;5002848;28;20445;-45
2022/07/14 14:55:31;;;;;;;1.42;1.30;;;;;;;;;;4997615;28;20380;-42
2022/07/14 14:57:57;;;;;;;2.33;1.50;;;;;;;;;;4999344;28;20121;-44
2022/07/14 15:00:23;;;;;;;6.32;1.33;;;;;;;;;;4993788;28;20138;-45
2022/07/14 15:02:49;;;;;;;2.97;1.20;;;;;;;;;;4993027;28;20699;-47